createdAt,value
2018-12-21T00:00:57.326Z,91.68
2018-12-21T00:01:57.324Z,91.27
2018-12-21T00:02:57.305Z,90.90
2018-12-21T00:03:57.312Z,91.06
2018-12-21T00:04:57.278Z,91.11
2018-12-21T00:05:57.266Z,91.21
2018-12-21T00:06:57.253Z,91.11
2018-12-21T00:07:58.693Z,90.59
2018-12-21T00:08:57.232Z,90.18
2018-12-21T00:09:57.263Z,91.38
2018-12-21T00:10:57.207Z,90.28
2018-12-21T00:11:57.196Z,91.52
2018-12-21T00:12:57.183Z,90.39
2018-12-21T00:13:57.172Z,90.18
2018-12-21T00:14:57.185Z,91.17
2018-12-21T00:15:57.148Z,90.86
2018-12-21T00:16:57.138Z,89.83
2018-12-21T00:17:57.126Z,89.73
2018-12-21T00:18:57.114Z,90.69
2018-12-21T00:19:57.102Z,90.80
2018-12-21T00:20:57.110Z,90.28
2018-12-21T00:21:57.079Z,90.90
2018-12-21T00:22:57.066Z,91.11
2018-12-21T00:23:57.060Z,90.49
2018-12-21T00:24:57.044Z,91.11
2018-12-21T00:25:57.051Z,91.11
2018-12-21T00:26:57.022Z,91.42
2018-12-21T00:27:57.010Z,90.28
2018-12-21T00:28:56.998Z,90.59
2018-12-21T00:29:56.986Z,89.97
2018-12-21T00:30:56.991Z,89.77
2018-12-21T00:31:56.981Z,89.97
2018-12-21T00:32:56.949Z,89.46
2018-12-21T00:33:56.938Z,89.87
2018-12-21T00:34:56.925Z,89.56
2018-12-21T00:35:56.933Z,89.05
2018-12-21T00:36:56.902Z,88.70
2018-12-21T00:37:56.890Z,88.74
2018-12-21T00:38:56.878Z,89.05
2018-12-21T00:39:56.869Z,89.36
2018-12-21T00:40:56.877Z,89.46
2018-12-21T00:41:56.849Z,89.73
2018-12-21T00:42:56.834Z,89.94
2018-12-21T00:43:56.821Z,89.87
2018-12-21T00:44:56.809Z,88.64
2018-12-21T00:45:56.838Z,88.64
2018-12-21T00:46:56.786Z,88.23
2018-12-21T00:47:56.774Z,88.95
2018-12-21T00:48:56.768Z,89.22
2018-12-21T00:49:56.750Z,88.23
2018-12-21T00:50:56.738Z,88.43
2018-12-21T00:51:56.748Z,89.15
2018-12-21T00:52:56.715Z,89.15
2018-12-21T00:53:56.705Z,89.25
2018-12-21T00:54:56.694Z,88.70
2018-12-21T00:55:56.688Z,88.29
2018-12-21T00:56:56.691Z,88.08
2018-12-21T00:57:56.658Z,88.08
2018-12-21T00:58:56.647Z,88.08
2018-12-21T00:59:56.730Z,87.87
2018-12-21T01:00:56.623Z,88.18
2018-12-21T01:01:56.611Z,87.57
2018-12-21T01:02:56.620Z,87.36
2018-12-21T01:03:56.590Z,88.18
2018-12-21T01:04:56.574Z,88.08
2018-12-21T01:05:56.565Z,87.57
2018-12-21T01:06:56.553Z,88.18
2018-12-21T01:07:56.570Z,87.46
2018-12-21T01:08:56.529Z,87.46
2018-12-21T01:09:56.518Z,87.46
2018-12-21T01:10:56.508Z,87.46
2018-12-21T01:11:56.494Z,86.95
2018-12-21T01:12:56.501Z,87.15
2018-12-21T01:13:56.471Z,87.57
2018-12-21T01:14:56.458Z,87.15
2018-12-21T01:15:56.447Z,87.57
2018-12-21T01:16:56.435Z,87.77
2018-12-21T01:17:56.534Z,87.15
2018-12-21T01:18:56.412Z,87.36
2018-12-21T01:19:56.401Z,87.46
2018-12-21T01:20:56.398Z,87.36
2018-12-21T01:21:56.377Z,88.39
2018-12-21T01:22:56.364Z,87.46
2018-12-21T01:23:56.372Z,87.57
2018-12-21T01:24:56.342Z,86.85
2018-12-21T01:25:56.329Z,87.57
2018-12-21T01:26:56.315Z,87.26
2018-12-21T01:27:56.306Z,86.43
2018-12-21T01:28:56.311Z,86.54
2018-12-21T01:29:56.285Z,86.95
2018-12-21T01:30:56.271Z,87.05
2018-12-21T01:31:56.258Z,86.54
2018-12-21T01:32:56.247Z,86.64
2018-12-21T01:33:56.258Z,87.26
2018-12-21T01:34:56.227Z,87.26
2018-12-21T01:35:56.212Z,86.43
2018-12-21T01:36:56.200Z,87.36
2018-12-21T01:37:56.189Z,86.95
2018-12-21T01:38:56.194Z,87.05
2018-12-21T01:39:56.164Z,87.26
2018-12-21T01:40:56.151Z,87.77
2018-12-21T01:41:56.155Z,87.87
2018-12-21T01:42:56.129Z,88.08
2018-12-21T01:43:56.144Z,88.08
2018-12-21T01:44:56.113Z,88.29
2018-12-21T01:45:56.093Z,88.12
2018-12-21T01:46:56.080Z,88.08
2018-12-21T01:47:56.068Z,88.12
2018-12-21T01:48:56.056Z,88.12
2018-12-21T01:49:56.064Z,88.33
2018-12-21T01:50:56.034Z,88.23
2018-12-21T01:51:56.030Z,88.12
2018-12-21T01:52:56.011Z,87.36
2018-12-21T01:53:55.997Z,87.09
2018-12-21T01:54:56.004Z,87.71
2018-12-21T01:55:55.974Z,87.36
2018-12-21T01:56:55.965Z,87.09
2018-12-21T01:57:55.950Z,86.95
2018-12-21T01:58:55.937Z,87.05
2018-12-21T01:59:55.949Z,87.09
2018-12-21T02:00:55.913Z,86.85
2018-12-21T02:01:55.901Z,86.85
2018-12-21T02:02:55.890Z,86.85
2018-12-21T02:03:55.877Z,86.74
2018-12-21T02:04:55.866Z,86.95
2018-12-21T02:05:55.873Z,86.13
2018-12-21T02:06:55.842Z,85.61
2018-12-21T02:07:55.830Z,85.51
2018-12-21T02:08:55.817Z,85.92
2018-12-21T02:09:55.806Z,86.43
2018-12-21T02:10:55.813Z,86.95
2018-12-21T02:11:55.783Z,86.74
2018-12-21T02:12:55.770Z,86.85
2018-12-21T02:13:55.758Z,86.85
2018-12-21T02:14:55.745Z,85.92
2018-12-21T02:15:55.752Z,86.23
2018-12-21T02:16:55.723Z,85.92
2018-12-21T02:17:55.711Z,85.10
2018-12-21T02:18:55.700Z,84.89
2018-12-21T02:19:55.687Z,85.30
2018-12-21T02:20:55.694Z,84.89
2018-12-21T02:21:56.171Z,84.89
2018-12-21T02:22:55.650Z,85.41
2018-12-21T02:23:55.640Z,85.30
2018-12-21T02:24:55.626Z,84.99
2018-12-21T02:25:55.637Z,85.30
2018-12-21T02:26:55.601Z,85.61
2018-12-21T02:27:55.590Z,85.41
2018-12-21T02:28:55.579Z,85.51
2018-12-21T02:29:55.567Z,85.20
2018-12-21T02:30:55.557Z,85.61
2018-12-21T02:31:55.588Z,85.61
2018-12-21T02:32:55.532Z,85.10
2018-12-21T02:33:55.520Z,85.30
2018-12-21T02:34:55.510Z,85.92
2018-12-21T02:35:55.495Z,85.41
2018-12-21T02:36:55.484Z,85.75
2018-12-21T02:37:55.490Z,85.51
2018-12-21T02:38:55.460Z,85.82
2018-12-21T02:39:55.450Z,85.92
2018-12-21T02:40:55.439Z,84.58
2018-12-21T02:41:55.424Z,84.99
2018-12-21T02:42:55.428Z,84.69
2018-12-21T02:43:55.399Z,84.89
2018-12-21T02:44:55.397Z,85.10
2018-12-21T02:45:55.376Z,85.20
2018-12-21T02:46:55.364Z,85.10
2018-12-21T02:47:55.395Z,85.20
2018-12-21T02:48:55.340Z,85.10
2018-12-21T02:49:55.327Z,85.30
2018-12-21T02:50:55.315Z,84.79
2018-12-21T02:51:55.308Z,84.89
2018-12-21T02:52:55.292Z,84.99
2018-12-21T02:53:55.303Z,84.69
2018-12-21T02:54:55.267Z,84.99
2018-12-21T02:55:55.256Z,84.58
2018-12-21T02:56:55.247Z,84.89
2018-12-21T02:57:55.232Z,84.99
2018-12-21T02:58:55.241Z,85.30
2018-12-21T02:59:55.209Z,85.30
2018-12-21T03:00:55.196Z,85.41
2018-12-21T03:01:55.188Z,85.41
2018-12-21T03:02:55.175Z,85.55
2018-12-21T03:03:55.188Z,84.69
2018-12-21T03:04:55.150Z,85.20
2018-12-21T03:05:55.144Z,84.83
2018-12-21T03:06:55.127Z,84.93
2018-12-21T03:07:55.114Z,84.79
2018-12-21T03:08:55.101Z,84.72
2018-12-21T03:09:55.110Z,85.20
2018-12-21T03:10:55.092Z,84.58
2018-12-21T03:11:55.066Z,84.58
2018-12-21T03:12:55.053Z,84.48
2018-12-21T03:13:55.046Z,84.48
2018-12-21T03:14:55.048Z,84.48
2018-12-21T03:15:55.017Z,84.27
2018-12-21T03:16:55.005Z,84.17
2018-12-21T03:17:54.993Z,84.69
2018-12-21T03:18:54.981Z,84.48
2018-12-21T03:19:54.986Z,85.10
2018-12-21T03:20:54.959Z,84.38
2018-12-21T03:21:54.947Z,84.69
2018-12-21T03:22:54.935Z,84.58
2018-12-21T03:23:54.921Z,84.48
2018-12-21T03:24:54.926Z,84.38
2018-12-21T03:25:54.897Z,84.79
2018-12-21T03:26:54.885Z,84.58
2018-12-21T03:27:54.873Z,84.69
2018-12-21T03:28:54.864Z,84.69
2018-12-21T03:29:54.873Z,84.27
2018-12-21T03:30:54.840Z,84.27
2018-12-21T03:31:54.828Z,85.10
2018-12-21T03:32:54.816Z,84.58
2018-12-21T03:33:54.806Z,84.79
2018-12-21T03:34:54.794Z,84.89
2018-12-21T03:35:54.797Z,84.99
2018-12-21T03:36:54.767Z,84.69
2018-12-21T03:37:54.758Z,85.20
2018-12-21T03:38:54.741Z,84.58
2018-12-21T03:39:54.731Z,85.10
2018-12-21T03:40:54.757Z,85.20
2018-12-21T03:41:54.709Z,84.69
2018-12-21T03:42:54.692Z,84.58
2018-12-21T03:43:54.683Z,84.38
2018-12-21T03:44:54.670Z,84.58
2018-12-21T03:45:54.656Z,84.44
2018-12-21T03:46:54.778Z,84.69
2018-12-21T03:47:54.633Z,84.38
2018-12-21T03:48:54.622Z,84.95
2018-12-21T03:49:54.614Z,84.07
2018-12-21T03:50:54.598Z,84.13
2018-12-21T03:51:54.605Z,84.44
2018-12-21T03:52:54.574Z,84.13
2018-12-21T03:53:54.562Z,83.89
2018-12-21T03:54:54.551Z,83.83
2018-12-21T03:55:54.538Z,84.34
2018-12-21T03:56:54.548Z,83.99
2018-12-21T03:57:54.515Z,83.83
2018-12-21T03:58:54.503Z,83.99
2018-12-21T03:59:54.492Z,84.61
2018-12-21T04:00:54.479Z,83.99
2018-12-21T04:01:54.525Z,84.30
2018-12-21T04:02:54.455Z,84.30
2018-12-21T04:03:54.444Z,84.50
2018-12-21T04:04:54.434Z,84.54
2018-12-21T04:05:54.419Z,85.02
2018-12-21T04:06:54.408Z,85.33
2018-12-21T04:07:54.423Z,85.63
2018-12-21T04:08:54.386Z,85.78
2018-12-21T04:09:54.374Z,86.77
2018-12-21T04:10:54.362Z,86.19
2018-12-21T04:11:54.353Z,87.42
2018-12-21T04:12:54.358Z,87.12
2018-12-21T04:13:54.326Z,87.42
2018-12-21T04:14:54.313Z,87.52
2018-12-21T04:15:54.302Z,88.18
2018-12-21T04:16:54.291Z,88.18
2018-12-21T04:17:54.300Z,88.29
2018-12-21T04:18:54.269Z,88.59
2018-12-21T04:19:54.255Z,89.22
2018-12-21T04:20:54.245Z,89.01
2018-12-21T04:21:54.233Z,89.22
2018-12-21T04:22:54.231Z,89.83
2018-12-21T04:23:54.227Z,89.62
2018-12-21T04:24:54.199Z,89.11
2018-12-21T04:25:54.188Z,89.62
2018-12-21T04:26:54.173Z,89.94
2018-12-21T04:27:54.162Z,89.77
2018-12-21T04:28:54.169Z,90.28
2018-12-21T04:29:54.140Z,90.14
2018-12-21T04:30:54.128Z,90.18
2018-12-21T04:31:54.116Z,90.08
2018-12-21T04:32:54.102Z,89.77
2018-12-21T04:33:54.112Z,90.39
2018-12-21T04:34:54.080Z,90.18
2018-12-21T04:35:54.068Z,90.28
2018-12-21T04:36:54.056Z,90.18
2018-12-21T04:37:54.045Z,89.62
2018-12-21T04:38:54.053Z,89.73
2018-12-21T04:39:54.035Z,89.67
2018-12-21T04:40:54.009Z,89.97
2018-12-21T04:41:53.997Z,89.62
2018-12-21T04:42:53.986Z,89.46
2018-12-21T04:43:53.973Z,89.46
2018-12-21T04:44:53.978Z,89.01
2018-12-21T04:45:53.947Z,89.01
2018-12-21T04:46:53.975Z,88.70
2018-12-21T04:47:53.926Z,88.39
2018-12-21T04:48:53.918Z,87.57
2018-12-21T04:49:53.923Z,87.77
2018-12-21T04:50:53.889Z,88.18
2018-12-21T04:51:53.880Z,88.24
2018-12-21T04:52:53.866Z,87.52
2018-12-21T04:53:53.854Z,87.52
2018-12-21T04:54:53.843Z,87.94
2018-12-21T04:55:53.878Z,88.08
2018-12-21T04:56:53.818Z,87.84
2018-12-21T04:57:53.807Z,88.24
2018-12-21T04:58:53.805Z,89.38
2018-12-21T04:59:53.788Z,88.96
2018-12-21T05:00:53.793Z,90.00
2018-12-21T05:01:53.758Z,89.94
2018-12-21T05:02:53.748Z,90.20
2018-12-21T05:03:53.741Z,91.27
2018-12-21T05:04:53.723Z,91.27
2018-12-21T05:05:53.711Z,91.47
2018-12-21T05:06:53.718Z,91.78
2018-12-21T05:07:53.705Z,92.30
2018-12-21T05:08:53.676Z,92.40
2018-12-21T05:09:53.663Z,92.61
2018-12-21T05:10:53.654Z,93.16
2018-12-21T05:11:53.660Z,92.30
2018-12-21T05:12:53.636Z,92.30
2018-12-21T05:13:53.622Z,92.24
2018-12-21T05:14:53.607Z,92.30
2018-12-21T05:15:53.592Z,91.99
2018-12-21T05:16:53.600Z,92.40
2018-12-21T05:17:53.568Z,92.61
2018-12-21T05:18:53.559Z,92.71
2018-12-21T05:19:53.544Z,93.12
2018-12-21T05:20:53.534Z,93.02
2018-12-21T05:21:53.543Z,92.92
2018-12-21T05:22:53.510Z,94.05
2018-12-21T05:23:53.496Z,93.58
2018-12-21T05:24:53.485Z,94.09
2018-12-21T05:25:53.471Z,94.81
2018-12-21T05:26:53.462Z,95.95
2018-12-21T05:27:53.471Z,95.48
2018-12-21T05:28:53.436Z,95.53
2018-12-21T05:29:53.423Z,96.20
2018-12-21T05:30:53.440Z,96.50
2018-12-21T05:31:53.401Z,97.64
2018-12-21T05:32:53.409Z,97.43
2018-12-21T05:33:53.383Z,97.53
2018-12-21T05:34:53.366Z,97.02
2018-12-21T05:35:53.353Z,97.43
2018-12-21T05:36:53.343Z,97.13
2018-12-21T05:37:53.357Z,98.10
2018-12-21T05:38:53.318Z,98.50
2018-12-21T05:39:53.308Z,98.41
2018-12-21T05:40:53.292Z,98.20
2018-12-21T05:41:53.284Z,98.61
2018-12-21T05:42:53.272Z,98.82
2018-12-21T05:43:53.275Z,98.71
2018-12-21T05:44:53.245Z,98.50
2018-12-21T05:45:53.235Z,98.71
2018-12-21T05:46:53.223Z,99.23
2018-12-21T05:47:53.685Z,99.13
2018-12-21T05:48:53.215Z,99.43
2018-12-21T05:49:53.185Z,99.13
2018-12-21T05:50:53.172Z,99.23
2018-12-21T05:51:53.160Z,99.13
2018-12-21T05:53:00.599Z,99.64
2018-12-21T05:53:54.157Z,99.43
2018-12-21T05:54:53.125Z,99.54
2018-12-21T05:55:53.114Z,99.13
2018-12-21T05:56:53.102Z,99.43
2018-12-21T05:57:53.089Z,99.29
2018-12-21T05:58:53.172Z,99.74
2018-12-21T05:59:53.085Z,99.54
2018-12-21T06:00:53.055Z,99.54
2018-12-21T06:01:53.043Z,99.74
2018-12-21T06:02:53.030Z,99.54
2018-12-21T06:03:53.019Z,99.64
2018-12-21T06:04:53.027Z,99.23
2018-12-21T06:05:53.000Z,99.74
2018-12-21T06:06:52.984Z,99.64
2018-12-21T06:07:52.973Z,99.74
2018-12-21T06:08:52.959Z,99.64
2018-12-21T06:09:52.969Z,99.99
2018-12-21T06:10:52.935Z,99.85
2018-12-21T06:11:52.923Z,99.64
2018-12-21T06:12:52.910Z,99.74
2018-12-21T06:13:52.897Z,99.99
2018-12-21T06:14:52.887Z,99.33
2018-12-21T06:15:52.892Z,99.33
2018-12-21T06:16:52.867Z,99.74
2018-12-21T06:17:52.852Z,99.33
2018-12-21T06:18:52.839Z,99.64
2018-12-21T06:19:52.828Z,99.74
2018-12-21T06:20:52.832Z,99.54
2018-12-21T06:21:52.804Z,99.54
2018-12-21T06:22:52.790Z,99.39
2018-12-21T06:23:52.778Z,99.64
2018-12-21T06:24:52.776Z,99.60
2018-12-21T06:25:52.779Z,99.74
2018-12-21T06:26:52.745Z,99.64
2018-12-21T06:27:52.732Z,99.64
2018-12-21T06:28:52.719Z,99.54
2018-12-21T06:29:52.706Z,99.49
2018-12-21T06:30:52.697Z,98.67
2018-12-21T06:31:52.701Z,99.49
2018-12-21T06:32:52.670Z,99.33
2018-12-21T06:33:52.660Z,99.13
2018-12-21T06:34:52.648Z,99.49
2018-12-21T06:35:52.639Z,99.08
2018-12-21T06:36:52.644Z,98.92
2018-12-21T06:37:52.613Z,99.08
2018-12-21T06:38:52.601Z,99.08
2018-12-21T06:39:52.591Z,99.49
2018-12-21T06:40:52.576Z,99.60
2018-12-21T06:41:52.584Z,99.60
2018-12-21T06:42:52.550Z,99.49
2018-12-21T06:43:52.543Z,99.29
2018-12-21T06:44:52.527Z,99.80
2018-12-21T06:45:52.515Z,98.97
2018-12-21T06:46:52.529Z,99.08
2018-12-21T06:47:52.491Z,98.77
2018-12-21T06:48:52.480Z,99.14
2018-12-21T06:49:52.468Z,99.39
2018-12-21T06:50:52.457Z,99.18
2018-12-21T06:51:52.444Z,99.08
2018-12-21T06:52:52.451Z,99.18
2018-12-21T06:53:52.420Z,98.88
2018-12-21T06:54:52.409Z,99.04
2018-12-21T06:55:52.400Z,99.04
2018-12-21T06:56:52.383Z,99.04
2018-12-21T06:57:52.391Z,99.44
2018-12-21T06:58:52.362Z,99.49
2018-12-21T06:59:52.352Z,98.93
2018-12-21T07:00:52.339Z,98.93
2018-12-21T07:01:52.325Z,99.04
2018-12-21T07:02:52.332Z,98.83
2018-12-21T07:03:52.300Z,98.72
2018-12-21T07:04:52.289Z,98.83
2018-12-21T07:05:52.280Z,99.76
2018-12-21T07:06:52.265Z,99.65
2018-12-21T07:07:52.271Z,99.34
2018-12-21T07:08:52.240Z,99.04
2018-12-21T07:09:52.228Z,98.83
2018-12-21T07:10:52.218Z,98.21
2018-12-21T07:11:52.206Z,97.86
2018-12-21T07:12:52.215Z,97.96
2018-12-21T07:13:52.187Z,97.86
2018-12-21T07:14:52.172Z,97.24
2018-12-21T07:15:52.161Z,96.83
2018-12-21T07:16:52.145Z,97.14
2018-12-21T07:17:52.134Z,97.44
2018-12-21T07:18:52.139Z,97.40
2018-12-21T07:19:52.110Z,97.34
2018-12-21T07:20:52.097Z,97.34
2018-12-21T07:21:52.167Z,97.75
2018-12-21T07:22:52.073Z,97.40
2018-12-21T07:23:52.086Z,97.14
2018-12-21T07:24:52.053Z,97.50
2018-12-21T07:25:52.037Z,97.34
2018-12-21T07:26:52.025Z,97.55
2018-12-21T07:27:52.013Z,97.19
2018-12-21T07:28:52.004Z,97.55
2018-12-21T07:29:52.008Z,97.65
2018-12-21T07:30:51.978Z,97.34
2018-12-21T07:31:51.970Z,97.65
2018-12-21T07:32:51.955Z,96.99
2018-12-21T07:33:51.942Z,96.47
2018-12-21T07:34:51.952Z,96.78
2018-12-21T07:35:51.918Z,97.40
2018-12-21T07:36:51.907Z,96.47
2018-12-21T07:37:51.893Z,97.40
2018-12-21T07:38:51.881Z,96.47
2018-12-21T07:39:51.875Z,97.09
2018-12-21T07:40:51.876Z,96.99
2018-12-21T07:41:51.847Z,96.06
2018-12-21T07:42:51.836Z,96.17
2018-12-21T07:43:51.825Z,96.68
2018-12-21T07:44:51.814Z,96.78
2018-12-21T07:45:51.817Z,97.40
2018-12-21T07:46:51.789Z,97.40
2018-12-21T07:47:51.775Z,97.40
2018-12-21T07:48:51.764Z,97.50
2018-12-21T07:49:51.862Z,97.71
2018-12-21T07:50:51.765Z,97.09
2018-12-21T07:51:51.732Z,97.30
2018-12-21T07:52:53.326Z,97.71
2018-12-21T07:53:51.706Z,97.50
2018-12-21T07:54:51.701Z,97.40
2018-12-21T07:55:51.681Z,97.19
2018-12-21T07:56:51.690Z,97.71
2018-12-21T07:57:51.660Z,97.30
2018-12-21T07:58:57.182Z,97.40
2018-12-21T07:59:52.633Z,97.50
2018-12-21T08:00:51.624Z,97.40
2018-12-21T08:01:51.628Z,97.30
2018-12-21T08:02:51.599Z,97.61
2018-12-21T08:03:51.589Z,97.40
2018-12-21T08:04:51.576Z,97.81
2018-12-21T08:05:51.564Z,97.77
2018-12-21T08:06:51.571Z,98.02
2018-12-21T08:07:51.538Z,97.77
2018-12-21T08:08:51.527Z,98.02
2018-12-21T08:09:51.518Z,97.71
2018-12-21T08:10:51.504Z,97.71
2018-12-21T08:11:51.519Z,97.66
2018-12-21T08:12:51.481Z,97.36
2018-12-21T08:13:51.470Z,97.77
2018-12-21T08:14:51.456Z,98.12
2018-12-21T08:15:51.445Z,98.22
2018-12-21T08:16:51.450Z,98.74
2018-12-21T08:17:51.419Z,99.25
2018-12-21T08:18:51.410Z,99.05
2018-12-21T08:19:51.396Z,99.05
2018-12-21T08:20:51.385Z,98.53
2018-12-21T08:21:51.497Z,98.84
2018-12-21T08:22:51.362Z,98.53
2018-12-21T08:23:51.350Z,98.53
2018-12-21T08:24:51.337Z,98.53
2018-12-21T08:25:51.325Z,98.12
2018-12-21T08:26:51.333Z,98.02
2018-12-21T08:27:51.302Z,98.22
2018-12-21T08:28:51.295Z,97.87
2018-12-21T08:29:51.276Z,97.81
2018-12-21T08:30:51.265Z,97.56
2018-12-21T08:31:51.273Z,97.87
2018-12-21T08:32:51.243Z,97.77
2018-12-21T08:33:51.230Z,97.56
2018-12-21T08:34:51.224Z,97.97
2018-12-21T08:35:51.210Z,97.56
2018-12-21T08:36:51.215Z,98.28
2018-12-21T08:37:51.182Z,97.87
2018-12-21T08:38:51.170Z,97.87
2018-12-21T08:39:51.159Z,98.18
2018-12-21T08:40:51.148Z,97.87
2018-12-21T08:41:51.156Z,97.87
2018-12-21T08:42:51.123Z,98.18
2018-12-21T08:43:51.112Z,98.18
2018-12-21T08:44:51.098Z,97.97
2018-12-21T08:45:51.088Z,97.97
2018-12-21T08:46:51.077Z,98.28
2018-12-21T08:47:51.082Z,99.10
2018-12-21T08:48:52.805Z,98.38
2018-12-21T08:49:51.043Z,98.90
2018-12-21T08:50:51.032Z,99.00
2018-12-21T08:51:51.016Z,99.00
2018-12-21T08:52:51.024Z,98.59
2018-12-21T08:53:52.631Z,98.69
2018-12-21T08:54:50.982Z,98.90
2018-12-21T08:55:50.969Z,98.85
2018-12-21T08:56:50.962Z,98.65
2018-12-21T08:57:50.964Z,99.16
2018-12-21T08:58:50.932Z,98.85
2018-12-21T08:59:50.924Z,98.54
2018-12-21T09:00:50.911Z,99.05
2018-12-21T09:01:50.898Z,98.54
2018-12-21T09:02:50.910Z,98.85
2018-12-21T09:03:50.875Z,99.26
2018-12-21T09:04:50.864Z,99.05
2018-12-21T09:05:50.852Z,99.37
2018-12-21T09:06:50.845Z,99.05
2018-12-21T09:07:50.869Z,99.05
2018-12-21T09:08:50.816Z,99.47
2018-12-21T09:09:50.804Z,99.26
2018-12-21T09:10:50.795Z,99.37
2018-12-21T09:11:50.782Z,99.37
2018-12-21T09:12:50.772Z,99.47
2018-12-21T09:13:50.777Z,99.47
2018-12-21T09:14:50.746Z,99.47
2018-12-21T09:15:50.737Z,99.37
2018-12-21T09:16:50.722Z,99.47
2018-12-21T09:17:50.712Z,99.88
2018-12-21T09:18:50.717Z,99.99
2018-12-21T09:19:50.695Z,99.98
2018-12-21T09:20:50.681Z,99.99
2018-12-21T09:21:50.664Z,99.47
2018-12-21T09:22:50.654Z,99.98
2018-12-21T09:23:50.659Z,99.67
2018-12-21T09:24:50.632Z,99.77
2018-12-21T09:25:50.618Z,99.37
2018-12-21T09:26:50.606Z,99.88
2018-12-21T09:27:50.596Z,99.99
2018-12-21T09:28:50.607Z,99.99
2018-12-21T09:29:50.571Z,99.99
2018-12-21T09:30:50.558Z,99.67
2018-12-21T09:31:50.547Z,99.67
2018-12-21T09:32:50.538Z,99.93
2018-12-21T09:33:50.543Z,99.99
2018-12-21T09:34:50.512Z,99.99
2018-12-21T09:35:50.499Z,99.83
2018-12-21T09:36:50.491Z,99.99
2018-12-21T09:37:50.481Z,99.83
2018-12-21T09:38:50.510Z,99.32
2018-12-21T09:39:50.458Z,99.32
2018-12-21T09:40:50.445Z,99.11
2018-12-21T09:41:50.431Z,99.93
2018-12-21T09:42:50.428Z,99.42
2018-12-21T09:43:50.407Z,99.32
2018-12-21T09:44:52.683Z,98.80
2018-12-21T09:45:50.386Z,99.21
2018-12-21T09:46:50.380Z,99.42
2018-12-21T09:47:50.360Z,99.21
2018-12-21T09:48:50.355Z,99.32
2018-12-21T09:49:50.420Z,99.68
2018-12-21T09:50:50.323Z,99.63
2018-12-21T09:51:50.321Z,99.32
2018-12-21T09:52:50.430Z,99.42
2018-12-21T09:53:50.295Z,99.63
2018-12-21T09:54:50.278Z,99.93
2018-12-21T09:55:50.299Z,99.38
2018-12-21T09:56:50.270Z,99.52
2018-12-21T09:57:50.298Z,99.52
2018-12-21T09:58:50.269Z,99.07
2018-12-21T09:59:50.238Z,99.48
2018-12-21T10:00:50.330Z,98.96
2018-12-21T10:01:50.198Z,98.86
2018-12-21T10:02:50.203Z,98.55
2018-12-21T10:03:50.185Z,98.35
2018-12-21T10:04:50.156Z,98.55
2018-12-21T10:05:50.164Z,98.55
2018-12-21T10:06:50.134Z,98.45
2018-12-21T10:07:50.124Z,98.86
2018-12-21T10:08:50.110Z,98.86
2018-12-21T10:09:50.098Z,98.76
2018-12-21T10:10:50.730Z,98.76
2018-12-21T10:11:50.081Z,98.35
2018-12-21T10:12:53.340Z,98.92
2018-12-21T10:13:50.063Z,98.71
2018-12-21T10:14:50.044Z,98.66
2018-12-21T10:15:50.049Z,98.82
2018-12-21T10:16:50.015Z,98.45
2018-12-21T10:17:50.004Z,98.61
2018-12-21T10:18:50.005Z,98.71
2018-12-21T10:19:49.987Z,98.92
2018-12-21T10:20:49.999Z,98.82
2018-12-21T10:21:49.962Z,98.82
2018-12-21T10:22:49.948Z,99.02
2018-12-21T10:23:49.934Z,98.71
2018-12-21T10:24:49.927Z,98.57
2018-12-21T10:25:49.955Z,99.18
2018-12-21T10:26:49.902Z,98.77
2018-12-21T10:27:49.888Z,99.08
2018-12-21T10:28:49.876Z,99.18
2018-12-21T10:29:49.874Z,99.28
2018-12-21T10:30:49.864Z,98.46
2018-12-21T10:31:49.864Z,98.25
2018-12-21T10:32:49.833Z,98.67
2018-12-21T10:33:49.819Z,98.36
2018-12-21T10:34:49.807Z,99.18
2018-12-21T10:35:49.797Z,99.18
2018-12-21T10:36:49.804Z,98.87
2018-12-21T10:37:49.772Z,99.28
2018-12-21T10:38:49.762Z,99.18
2018-12-21T10:39:49.749Z,98.87
2018-12-21T10:40:49.738Z,99.08
2018-12-21T10:41:49.752Z,99.18
2018-12-21T10:42:49.718Z,99.69
2018-12-21T10:43:49.705Z,99.44
2018-12-21T10:44:49.700Z,99.34
2018-12-21T10:45:49.679Z,99.54
2018-12-21T10:46:49.668Z,99.34
2018-12-21T10:47:49.675Z,99.44
2018-12-21T10:48:49.644Z,99.44
2018-12-21T10:49:49.633Z,99.34
2018-12-21T10:50:49.623Z,99.34
2018-12-21T10:51:49.615Z,99.34
2018-12-21T10:52:49.618Z,99.34
2018-12-21T10:53:49.595Z,99.80
2018-12-21T10:54:49.577Z,99.24
2018-12-21T10:55:49.564Z,99.40
2018-12-21T10:56:49.551Z,99.80
2018-12-21T10:57:49.562Z,99.40
2018-12-21T10:58:49.953Z,99.29
2018-12-21T10:59:49.518Z,99.91
2018-12-21T11:00:49.504Z,99.60
2018-12-21T11:01:49.495Z,99.50
2018-12-21T11:02:49.482Z,99.19
2018-12-21T11:03:49.488Z,99.70
2018-12-21T11:04:49.459Z,99.55
2018-12-21T11:05:49.447Z,99.45
2018-12-21T11:06:49.436Z,99.76
2018-12-21T11:07:49.423Z,99.55
2018-12-21T11:08:49.431Z,99.25
2018-12-21T11:09:49.401Z,99.10
2018-12-21T11:10:49.390Z,99.51
2018-12-21T11:11:49.378Z,99.51
2018-12-21T11:12:49.366Z,99.30
2018-12-21T11:13:49.373Z,99.20
2018-12-21T11:14:49.341Z,99.10
2018-12-21T11:15:49.330Z,99.10
2018-12-21T11:16:49.321Z,99.71
2018-12-21T11:17:49.350Z,99.51
2018-12-21T11:18:49.337Z,99.77
2018-12-21T11:19:49.284Z,99.66
2018-12-21T11:20:49.273Z,99.46
2018-12-21T11:21:49.261Z,99.98
2018-12-21T11:22:49.248Z,99.99
2018-12-21T11:23:49.237Z,99.87
2018-12-21T11:24:49.245Z,99.46
2018-12-21T11:25:49.213Z,99.87
2018-12-21T11:26:49.203Z,99.93
2018-12-21T11:27:49.193Z,99.01
2018-12-21T11:28:49.178Z,99.72
2018-12-21T11:29:49.663Z,99.31
2018-12-21T11:30:49.155Z,99.62
2018-12-21T11:31:49.144Z,99.88
2018-12-21T11:32:49.134Z,99.99
2018-12-21T11:33:49.121Z,99.99
2018-12-21T11:34:49.128Z,99.98
2018-12-21T11:35:49.097Z,99.99
2018-12-21T11:36:49.086Z,99.99
2018-12-21T11:37:49.074Z,99.99
2018-12-21T11:38:49.134Z,99.99
2018-12-21T11:39:49.139Z,99.98
2018-12-21T11:40:49.037Z,99.99
2018-12-21T11:41:49.025Z,99.99
2018-12-21T11:42:49.015Z,99.84
2018-12-21T11:43:49.001Z,99.73
2018-12-21T11:44:48.994Z,99.84
2018-12-21T11:45:48.998Z,99.93
2018-12-21T11:46:48.968Z,99.84
2018-12-21T11:47:48.955Z,99.79
2018-12-21T11:48:48.943Z,99.79
2018-12-21T11:49:48.932Z,99.89
2018-12-21T11:50:48.940Z,99.58
2018-12-21T11:51:48.909Z,99.99
2018-12-21T11:52:48.898Z,99.99
2018-12-21T11:53:48.889Z,99.99
2018-12-21T11:54:48.874Z,99.99
2018-12-21T11:55:48.880Z,99.99
2018-12-21T11:56:48.854Z,99.99
2018-12-21T11:57:48.838Z,99.99
2018-12-21T11:58:48.826Z,99.99
2018-12-21T11:59:48.814Z,99.84
2018-12-21T12:00:48.888Z,99.95
2018-12-21T12:01:48.790Z,99.84
2018-12-21T12:02:48.779Z,99.54
2018-12-21T12:03:48.766Z,98.98
2018-12-21T12:04:48.756Z,98.68
2018-12-21T12:05:48.744Z,98.88
2018-12-21T12:06:48.749Z,98.88
2018-12-21T12:07:48.717Z,98.88
2018-12-21T12:08:48.706Z,98.88
2018-12-21T12:09:55.209Z,98.88
2018-12-21T12:10:48.684Z,98.77
2018-12-21T12:11:48.690Z,99.08
2018-12-21T12:12:48.660Z,98.77
2018-12-21T12:13:48.649Z,99.08
2018-12-21T12:14:48.636Z,98.43
2018-12-21T12:15:48.629Z,98.11
2018-12-21T12:16:48.630Z,98.22
2018-12-21T12:17:48.600Z,97.61
2018-12-21T12:18:48.590Z,98.22
2018-12-21T12:19:48.576Z,98.83
2018-12-21T12:20:48.564Z,98.63
2018-12-21T12:21:48.577Z,98.73
2018-12-21T12:22:48.541Z,98.73
2018-12-21T12:23:48.530Z,98.83
2018-12-21T12:24:52.712Z,99.44
2018-12-21T12:25:48.505Z,99.75
2018-12-21T12:26:48.493Z,99.85
2018-12-21T12:27:48.500Z,99.85
2018-12-21T12:28:48.472Z,99.99
2018-12-21T12:29:48.458Z,99.04
2018-12-21T12:30:48.446Z,99.34
2018-12-21T12:31:48.435Z,98.83
2018-12-21T12:32:48.447Z,99.54
2018-12-21T12:33:48.411Z,99.44
2018-12-21T12:34:48.403Z,99.50
2018-12-21T12:35:48.389Z,99.54
2018-12-21T12:36:48.375Z,99.44
2018-12-21T12:37:48.364Z,99.44
2018-12-21T12:38:48.370Z,99.14
2018-12-21T12:39:48.348Z,99.14
2018-12-21T12:40:48.331Z,99.14
2018-12-21T12:41:48.319Z,99.09
2018-12-21T12:42:48.307Z,99.40
2018-12-21T12:43:48.315Z,99.29
2018-12-21T12:44:48.283Z,99.29
2018-12-21T12:45:48.272Z,98.58
2018-12-21T12:46:48.260Z,98.07
2018-12-21T12:47:48.247Z,98.13
2018-12-21T12:48:48.255Z,98.27
2018-12-21T12:49:48.226Z,97.62
2018-12-21T12:50:48.214Z,98.27
2018-12-21T12:51:48.203Z,98.18
2018-12-21T12:52:48.194Z,97.62